AirNav   Air Wisconsin Up To $57,000 Bonus
 
 560 users online  

TA65 Sportsman's World Airport
Palo Pinto, Texas, USA

GOING TO PALO PINTO?


FAA INFORMATION EFFECTIVE 04 NOVEMBER 2021

Location

FAA Identifier: TA65
Lat/Long: 32-49-16.4440N 098-28-43.1950W
32-49.274067N 098-28.719917W
32.8212344,-98.4786653
(estimated)
Elevation: 1142 ft. / 348 m (estimated)
Variation: 07E (1985)
From city: 10 miles NW of PALO PINTO, TX
Time zone: UTC -5 (UTC -6 during Standard Time)
Zip code: 76449

Airport Operations

Airport use: Private use. Permission required prior to landing
Activation date: 11/1979
Control tower: no
ARTCC: FORT WORTH CENTER
FSS: FORT WORTH FLIGHT SERVICE STATION
Attendance: 
Wind indicator: yes
Segmented circle: no

Airport Communications

WX AWOS-3 at RPH (18 nm N): 118.025 (940-521-0685)

Nearby radio navigation aids

VOR radial/distance  VOR name  Freq  Var
MQPr274/24.9MILLSAP VORTAC117.7009E

 
NDB name  Hdg/Dist  Freq  Var  ID
GRAHAM170/20.737107EGHX --. .... -..-

Airport Services

Runway Information

Runway NW/SE

Dimensions: 4200 x 65 ft. / 1280 x 20 m
Surface: asphalt
RUNWAY NW  RUNWAY SE
Traffic pattern: leftleft

Airport Ownership and Management from official FAA records

Ownership: Privately-owned
Owner: SPORTSMAN'S REC'L ASSOC
6020 HELLS GATE LOOP
STRAWN, TX 76475
Phone 817-779-2020
Manager: SPORTSMAN'S REC'L ASSOC
6020 HELLS GATE LOOP
STRAWN, TX 76475
Phone 817-779-2926

Airport Operational Statistics

Aircraft based on the field: 4
Single engine airplanes: 2
Multi engine airplanes: 2
    

Additional Remarks

FOR CD CTC FORT WORTH ARTCC AT 817-858-7584.

Instrument Procedures

There are no published instrument procedures at TA65.

Some nearby airports with instrument procedures:

F35 - Possum Kingdom Airport (6 nm N)
KRPH - Graham Municipal Airport (18 nm N)
KMWL - Mineral Wells Regional Airport (21 nm E)
KBKD - Stephens County Airport (22 nm W)
KETN - Eastland Municipal Airport (30 nm SW)
 
Loc | Ops | Rwys | IFR | FBO | Links
Com | Nav | Svcs | Stats | Notes

City of Fort Worth
 
Area around TA65 (Sportsman's World Airport)
 
Road maps at: MapQuest Bing Google
 
Aerial photo
WARNING: Photo may not be current or correct
Aerial photo of TA65 (Sportsman's World Airport)
Photo taken 27-Apr-2018
looking northwest.

Do you have a better or more recent aerial photo of Sportsman's World Airport that you would like to share? If so, please send us your photo.

 
Sectional chart

 
Airport distance calculator
Flying to Sportsman's World Airport? Find the distance to fly.

From to TA65

Sunrise and sunset
Times for 01-Dec-2021
 Local
(UTC-6)
 Zulu
(UTC)
Morning civil twilight06:5312:53
Sunrise07:1913:19
Sunset17:2723:27
Evening civil twilight17:5323:53

Current date and time
Zulu (UTC)  01-Dec-2021 09:16:06
Local (UTC-6)  01-Dec-2021 03:16:06
 
METAR
KRPH 
18nm N 
010855Z AUTO 21006KT 10SM CLR 14/09 A3001 RMK AO2 SLP759 T01380088
KMWL 
21nm E 
010853Z AUTO 14003KT 10SM CLR 09/05 A3003 RMK AO2 SLP161 T00890050 55000
KBKD 
22nm W 
010855Z AUTO 23005KT 10SM CLR 14/09 A3005 RMK AO2 T01440091
KETN 
30nm SW 
010855Z AUTO 24003KT 10SM CLR 10/07 A3006 RMK AO2 T01040068
TAF
NOTAMs
Click for the latest NOTAMs
NOTAMs are issued by the DoD/FAA and will open in a separate window not controlled by AirNav.

 

 
 

Would you like to see your business listed on this page?

 If your business provides an interesting product or service to pilots, flight crews, aircraft, or users of the Sportsman's World Airport, you should consider listing it here.  To start the listing process, click on the button below
 
Add a business
 

Other Pages about Sportsman's World Airport

Update a link
 
Copyright © AirNav, LLC. All rights reserved. Privacy Policy  Contact